createdAt,value
2019-02-21T00:01:04.470Z,258.97
2019-02-21T00:05:15.610Z,253.20
2019-02-21T00:09:26.617Z,252.43
2019-02-21T00:13:37.637Z,255.77
2019-02-21T00:17:48.834Z,250.53
2019-02-21T00:22:00.107Z,254.37
2019-02-21T00:26:11.283Z,257.23
2019-02-21T00:30:22.616Z,259.77
2019-02-21T00:34:34.279Z,259.47
2019-02-21T00:38:45.531Z,250.87
2019-02-21T00:42:56.630Z,253.90
2019-02-21T00:47:07.623Z,254.17
2019-02-21T00:51:18.794Z,256.20
2019-02-21T00:55:30.744Z,269.23
2019-02-21T00:59:41.740Z,260.13
2019-02-21T01:03:52.742Z,247.50
2019-02-21T01:08:03.831Z,248.17
2019-02-21T01:12:15.021Z,246.00
2019-02-21T01:16:26.292Z,253.97
2019-02-21T01:20:37.391Z,261.70
2019-02-21T01:24:48.494Z,255.57
2019-02-21T01:28:59.579Z,253.40
2019-02-21T01:33:10.681Z,251.17
2019-02-21T01:37:21.891Z,251.03
2019-02-21T01:41:32.986Z,251.10
2019-02-21T01:45:44.073Z,255.10
2019-02-21T01:49:55.082Z,257.50
2019-02-21T01:54:06.076Z,245.03
2019-02-21T01:58:16.103Z,243.90
2019-02-21T02:02:27.212Z,256.10
2019-02-21T02:06:38.205Z,247.12
2019-02-21T02:10:49.201Z,247.70
2019-02-21T02:15:00.304Z,245.30
2019-02-21T02:19:11.301Z,251.33
2019-02-21T02:23:22.308Z,260.30
2019-02-21T02:27:33.419Z,255.10
2019-02-21T02:31:44.703Z,253.33
2019-02-21T02:35:55.991Z,256.17
2019-02-21T02:40:08.054Z,247.17
2019-02-21T02:44:19.048Z,251.60
2019-02-21T02:48:30.152Z,251.20
2019-02-21T02:52:41.152Z,256.17
2019-02-21T02:56:52.255Z,251.02
2019-02-21T03:01:03.363Z,252.27
2019-02-21T03:05:14.349Z,253.00
2019-02-21T03:09:25.353Z,255.30
2019-02-21T03:13:36.355Z,256.07
2019-02-21T03:17:47.361Z,263.20
2019-02-21T03:21:58.484Z,277.13
2019-02-21T03:26:09.953Z,266.73
2019-02-21T03:30:20.941Z,268.13
2019-02-21T03:34:31.936Z,251.73
2019-02-21T03:38:43.043Z,276.27
2019-02-21T03:42:54.145Z,265.03
2019-02-21T03:47:05.161Z,259.97
2019-02-21T03:51:16.415Z,264.10
2019-02-21T03:55:27.625Z,260.30
2019-02-21T03:59:37.708Z,281.00
2019-02-21T04:03:49.177Z,262.87
2019-02-21T04:08:00.365Z,262.20
2019-02-21T04:12:11.455Z,262.60
2019-02-21T04:16:22.575Z,251.33
2019-02-21T04:20:33.668Z,265.10
2019-02-21T04:24:44.663Z,265.43
2019-02-21T04:28:55.659Z,254.23
2019-02-21T04:33:06.663Z,270.43
2019-02-21T04:37:17.757Z,258.87
2019-02-21T04:41:28.751Z,250.23
2019-02-21T04:45:39.767Z,250.87
2019-02-21T04:49:50.864Z,254.53
2019-02-21T04:54:01.866Z,251.30
2019-02-21T04:58:12.874Z,261.53
2019-02-21T05:02:29.185Z,266.97
2019-02-21T05:06:37.157Z,257.93
2019-02-21T05:10:48.149Z,250.87
2019-02-21T05:14:59.260Z,246.00
2019-02-21T05:19:10.466Z,256.40
2019-02-21T05:23:21.567Z,252.93
2019-02-21T05:27:33.456Z,255.03
2019-02-21T05:31:49.292Z,261.33
2019-02-21T05:36:01.944Z,252.13
2019-02-21T05:40:28.592Z,247.57
2019-02-21T05:44:44.145Z,257.83
2019-02-21T05:48:57.782Z,259.13
2019-02-21T05:53:22.281Z,253.50
2019-02-21T05:57:51.183Z,252.57
2019-02-21T06:02:04.031Z,254.00
2019-02-21T06:06:32.029Z,254.47
2019-02-21T06:10:56.491Z,248.87
2019-02-21T06:15:27.670Z,253.63
2019-02-21T06:19:40.731Z,262.87
2019-02-21T06:24:08.268Z,253.97
2019-02-21T06:28:23.184Z,275.33
2019-02-21T06:32:34.298Z,261.60
2019-02-21T06:36:45.403Z,243.80
2019-02-21T06:40:56.400Z,253.33
2019-02-21T06:45:08.080Z,247.77
2019-02-21T06:49:19.162Z,254.67
2019-02-21T06:53:30.192Z,260.80
2019-02-21T06:57:41.193Z,255.83
2019-02-21T07:01:52.322Z,258.53
2019-02-21T07:06:03.358Z,254.63
2019-02-21T07:10:14.342Z,260.83
2019-02-21T07:14:25.457Z,260.00
2019-02-21T07:18:37.513Z,249.03
2019-02-21T07:22:48.507Z,258.23
2019-02-21T07:27:01.562Z,253.43
2019-02-21T07:31:12.462Z,257.13
2019-02-21T07:35:23.467Z,250.70
2019-02-21T07:39:36.329Z,251.37
2019-02-21T07:43:47.971Z,262.33
2019-02-21T07:47:58.992Z,261.33
2019-02-21T07:52:10.093Z,272.87
2019-02-21T07:56:21.124Z,269.50
2019-02-21T08:00:32.866Z,272.00
2019-02-21T08:04:44.290Z,266.50
2019-02-21T08:08:55.383Z,258.87
2019-02-21T08:13:06.483Z,259.80
2019-02-21T08:17:17.507Z,261.63
2019-02-21T08:21:28.859Z,270.97
2019-02-21T08:25:39.828Z,276.63
2019-02-21T08:29:50.922Z,269.97
2019-02-21T08:34:04.457Z,265.13
2019-02-21T08:38:15.560Z,269.80
2019-02-21T08:42:26.653Z,269.97
2019-02-21T08:46:37.748Z,279.10
2019-02-21T08:50:48.942Z,282.37
2019-02-21T08:55:00.744Z,266.97
2019-02-21T08:59:12.036Z,265.07
2019-02-21T09:03:23.300Z,268.87
2019-02-21T09:07:34.391Z,265.53
2019-02-21T09:11:45.496Z,259.67
2019-02-21T09:15:56.608Z,258.13
2019-02-21T09:20:09.668Z,261.53
2019-02-21T09:24:37.432Z,268.13
2019-02-21T09:28:33.315Z,266.40
2019-02-21T09:32:44.607Z,262.50
2019-02-21T09:36:55.770Z,258.80
2019-02-21T09:41:07.157Z,272.50
2019-02-21T09:45:18.909Z,261.80
2019-02-21T09:49:29.907Z,267.93
2019-02-21T09:53:41.009Z,274.93
2019-02-21T09:57:52.043Z,268.17
2019-02-21T10:02:05.921Z,268.47
2019-02-21T10:06:16.916Z,269.67
2019-02-21T10:10:28.041Z,270.03
2019-02-21T10:14:39.139Z,262.87
2019-02-21T10:18:50.138Z,265.90
2019-02-21T10:23:01.295Z,269.10
2019-02-21T10:27:12.389Z,275.73
2019-02-21T10:31:23.457Z,273.83
2019-02-21T10:35:34.566Z,274.50
2019-02-21T10:39:47.690Z,273.43
2019-02-21T10:43:57.990Z,266.10
2019-02-21T10:48:09.796Z,263.23
2019-02-21T10:52:19.846Z,267.73
2019-02-21T10:56:30.843Z,271.03
2019-02-21T11:00:42.909Z,265.27
2019-02-21T11:04:55.113Z,264.80
2019-02-21T11:09:08.333Z,259.30
2019-02-21T11:13:19.406Z,257.07
2019-02-21T11:17:32.094Z,269.53
2019-02-21T11:21:42.121Z,261.20
2019-02-21T11:25:53.156Z,262.10
2019-02-21T11:30:07.475Z,261.97
2019-02-21T11:34:18.469Z,268.10
2019-02-21T11:38:30.199Z,272.17
2019-02-21T11:42:41.639Z,255.87
2019-02-21T11:46:52.751Z,261.00
2019-02-21T11:51:04.033Z,275.07
2019-02-21T11:55:22.785Z,282.27
2019-02-21T11:59:33.784Z,278.90
2019-02-21T12:03:44.895Z,269.93
2019-02-21T12:07:57.667Z,265.20
2019-02-21T12:12:10.396Z,270.40
2019-02-21T12:16:21.329Z,265.13
2019-02-21T12:20:32.438Z,273.57
2019-02-21T12:24:43.533Z,292.63
2019-02-21T12:28:54.545Z,269.90
2019-02-21T12:33:05.623Z,277.73
2019-02-21T12:37:16.633Z,271.50
2019-02-21T12:41:27.632Z,270.10
2019-02-21T12:45:38.646Z,260.57
2019-02-21T12:49:49.819Z,262.53
2019-02-21T12:54:00.830Z,268.03
2019-02-21T12:58:11.829Z,267.70
2019-02-21T13:02:22.940Z,266.70
2019-02-21T13:06:34.056Z,256.80
2019-02-21T13:10:45.163Z,267.47
2019-02-21T13:14:56.267Z,258.60
2019-02-21T13:19:07.386Z,265.40
2019-02-21T13:23:18.405Z,254.40
2019-02-21T13:27:29.437Z,268.15
2019-02-21T13:31:40.483Z,260.80
2019-02-21T13:35:53.031Z,270.77
2019-02-21T13:40:06.330Z,255.03
2019-02-21T13:44:17.911Z,272.90
2019-02-21T13:48:29.777Z,273.03
2019-02-21T13:52:40.884Z,268.27
2019-02-21T13:56:51.579Z,265.60
2019-02-21T14:01:02.586Z,267.77
2019-02-21T14:05:13.520Z,258.30
2019-02-21T14:09:24.662Z,258.93
2019-02-21T14:13:36.584Z,250.50
2019-02-21T14:17:48.258Z,255.37
2019-02-21T14:21:59.260Z,252.70
2019-02-21T14:26:10.368Z,260.47
2019-02-21T14:30:22.122Z,257.43
2019-02-21T14:34:33.122Z,251.33
2019-02-21T14:38:44.135Z,251.17
2019-02-21T14:42:55.252Z,253.97
2019-02-21T14:47:08.058Z,254.37
2019-02-21T14:51:18.994Z,252.77
2019-02-21T14:55:30.194Z,253.37
2019-02-21T14:59:41.326Z,249.30
2019-02-21T15:03:52.344Z,250.43
2019-02-21T15:08:03.685Z,250.60
2019-02-21T15:12:14.689Z,254.77
2019-02-21T15:16:25.804Z,252.37
2019-02-21T15:20:37.347Z,259.33
2019-02-21T15:24:48.401Z,263.13
2019-02-21T15:29:01.311Z,261.97
2019-02-21T15:33:12.426Z,278.87
2019-02-21T15:37:23.046Z,258.00
2019-02-21T15:41:34.049Z,252.90
2019-02-21T15:45:46.180Z,248.30
2019-02-21T15:49:57.237Z,261.77
2019-02-21T15:54:08.435Z,266.43
2019-02-21T15:58:19.473Z,257.40
2019-02-21T16:02:30.475Z,258.37
2019-02-21T16:06:50.916Z,246.77
2019-02-21T16:10:54.261Z,255.20
2019-02-21T16:15:06.429Z,254.73
2019-02-21T16:19:17.503Z,257.50
2019-02-21T16:23:29.249Z,259.10
2019-02-21T16:27:40.355Z,277.70
2019-02-21T16:31:51.353Z,263.90
2019-02-21T16:36:02.375Z,283.33
2019-02-21T16:40:17.391Z,260.87
2019-02-21T16:44:28.426Z,255.83
2019-02-21T16:48:39.474Z,265.20
2019-02-21T16:52:50.485Z,252.93
2019-02-21T16:57:01.469Z,260.60
2019-02-21T17:01:12.494Z,254.93
2019-02-21T17:05:24.495Z,261.53
2019-02-21T17:09:35.530Z,260.67
2019-02-21T17:13:46.625Z,268.03
2019-02-21T17:17:56.678Z,256.27
2019-02-21T17:22:08.167Z,268.40
2019-02-21T17:26:20.886Z,260.77
2019-02-21T17:30:33.831Z,265.73
2019-02-21T17:34:44.061Z,263.37
2019-02-21T17:38:55.180Z,263.97
2019-02-21T17:43:06.820Z,261.57
2019-02-21T17:47:17.921Z,267.40
2019-02-21T17:51:28.932Z,273.07
2019-02-21T17:55:40.045Z,281.17
2019-02-21T17:59:51.157Z,270.77
2019-02-21T18:04:02.170Z,267.00
2019-02-21T18:08:14.552Z,266.80
2019-02-21T18:12:25.728Z,265.87
2019-02-21T18:16:50.457Z,268.70
2019-02-21T18:20:52.286Z,265.47
2019-02-21T18:25:04.061Z,271.00
2019-02-21T18:29:15.085Z,259.47
2019-02-21T18:33:26.119Z,264.60
2019-02-21T18:37:46.666Z,273.33
2019-02-21T18:41:49.790Z,268.87
2019-02-21T18:46:02.513Z,262.77
2019-02-21T18:50:14.467Z,269.87
2019-02-21T18:54:25.487Z,264.60
2019-02-21T18:58:36.595Z,269.10
2019-02-21T19:02:47.691Z,265.67
2019-02-21T19:06:58.702Z,263.80
2019-02-21T19:11:10.085Z,254.60
2019-02-21T19:15:22.028Z,264.33
2019-02-21T19:19:33.097Z,262.67
2019-02-21T19:23:44.113Z,264.67
2019-02-21T19:27:55.235Z,259.87
2019-02-21T19:32:06.337Z,279.83
2019-02-21T19:36:17.860Z,257.57
2019-02-21T19:40:28.598Z,267.10
2019-02-21T19:44:39.609Z,280.93
2019-02-21T19:48:51.300Z,263.48
2019-02-21T19:53:03.610Z,272.37
2019-02-21T19:57:14.728Z,272.53
2019-02-21T20:01:25.729Z,275.27
2019-02-21T20:05:36.742Z,257.43
2019-02-21T20:09:48.006Z,264.57
2019-02-21T20:13:59.380Z,278.87
2019-02-21T20:18:10.393Z,280.47
2019-02-21T20:22:22.956Z,277.40
2019-02-21T20:26:34.167Z,276.07
2019-02-21T20:30:45.359Z,265.23
2019-02-21T20:34:56.441Z,267.67
2019-02-21T20:39:09.283Z,265.77
2019-02-21T20:43:20.445Z,277.10
2019-02-21T20:47:31.444Z,271.30
2019-02-21T20:51:42.551Z,278.10
2019-02-21T20:55:53.669Z,277.57
2019-02-21T21:00:10.318Z,271.03
2019-02-21T21:04:21.319Z,271.80
2019-02-21T21:08:42.484Z,270.47
2019-02-21T21:12:45.193Z,270.20
2019-02-21T21:16:56.202Z,267.97
2019-02-21T21:21:07.199Z,286.20
2019-02-21T21:25:18.704Z,256.53
2019-02-21T21:29:29.698Z,288.18
2019-02-21T21:33:40.705Z,275.30
2019-02-21T21:37:51.702Z,278.77
2019-02-21T21:42:02.712Z,277.67
2019-02-21T21:46:13.705Z,274.30
2019-02-21T21:50:24.765Z,287.53
2019-02-21T21:54:37.908Z,286.83
2019-02-21T21:58:48.840Z,285.17
2019-02-21T22:02:59.976Z,280.10
2019-02-21T22:07:11.008Z,277.87
2019-02-21T22:11:22.003Z,278.60
2019-02-21T22:15:33.094Z,284.77
2019-02-21T22:19:44.187Z,279.17
2019-02-21T22:23:55.271Z,288.33
2019-02-21T22:28:07.554Z,279.43
2019-02-21T22:32:19.818Z,278.03
2019-02-21T22:36:31.392Z,290.70
2019-02-21T22:40:42.487Z,281.60
2019-02-21T22:44:53.501Z,286.63
2019-02-21T22:49:04.611Z,277.60
2019-02-21T22:53:15.701Z,286.73
2019-02-21T22:57:26.820Z,281.93
2019-02-21T23:01:37.890Z,287.87
2019-02-21T23:06:26.597Z,265.40
2019-02-21T23:10:37.604Z,279.50
2019-02-21T23:14:49.065Z,274.30
2019-02-21T23:19:19.567Z,279.33
2019-02-21T23:23:30.787Z,280.63
2019-02-21T23:27:41.901Z,297.43
2019-02-21T23:31:52.927Z,285.13
2019-02-21T23:36:04.021Z,281.90
2019-02-21T23:40:15.831Z,276.70
2019-02-21T23:44:27.161Z,287.77
2019-02-21T23:48:38.274Z,286.73
2019-02-21T23:52:49.388Z,282.73
2019-02-21T23:57:00.481Z,282.37
